Time;durP1;ratioP1;P1;durP2;ratioP2;P2;SDS_P1;SDS_P2;PMS_P1;PMS_P2;Temp;Humidity;BMP_temperature;BMP_pressure;BME280_temperature;BME280_humidity;BME280_pressure;Samples;Min_cycle;Max_cycle;Signal;HPM_P1;HPM_P2
2024/02/18 00:01:56;;;;;;;;;1.00;1.00;;;;;3.27;81.43;102052.37;114398;239;161084;-52
2024/02/18 00:04:33;;;;;;;;;1.00;1.00;;;;;3.24;81.50;102050.41;114545;242;39571;-52
2024/02/18 00:07:07;;;;;;;;;1.00;0.00;;;;;3.24;81.50;102048.66;114478;241;159877;-53
2024/02/18 00:09:41;;;;;;;;;1.00;1.00;;;;;3.19;81.29;102051.30;114531;242;40268;-53
2024/02/18 00:12:34;;;;;;;;;1.00;1.00;;;;;3.14;81.17;102055.04;114417;239;160429;-55
2024/02/18 00:15:26;;;;;;;;;1.00;1.00;;;;;3.10;81.03;102057.63;114577;243;40920;-55
2024/02/18 00:18:19;;;;;;;;;1.00;1.00;;;;;3.13;81.21;102054.55;114471;239;160257;-52
2024/02/18 00:20:53;;;;;;;;;2.00;1.67;;;;;3.14;81.12;102054.46;114535;243;39959;-52
2024/02/18 00:23:27;;;;;;;;;3.25;2.50;;;;;3.13;81.01;102052.27;114580;242;40658;-53
2024/02/18 00:26:01;;;;;;;;;1.00;1.00;;;;;3.12;81.01;102055.16;114434;239;159947;-54
2024/02/18 00:28:35;;;;;;;;;1.00;1.00;;;;;3.06;81.09;102057.73;114588;242;40114;-55
2024/02/18 00:31:10;;;;;;;;;1.00;1.00;;;;;3.05;81.15;102063.79;114428;239;160305;-54
2024/02/18 00:33:44;;;;;;;;;1.00;1.00;;;;;3.06;81.10;102063.23;114532;243;41630;-53
2024/02/18 00:36:20;;;;;;;;;0.75;0.75;;;;;3.07;81.20;102072.05;114428;239;160396;-52
2024/02/18 00:38:54;;;;;;;;;1.00;1.00;;;;;3.05;81.10;102071.66;114523;242;41147;-52
2024/02/18 00:41:28;;;;;;;;;3.00;2.00;;;;;3.03;81.09;102074.60;114564;243;39407;-54
2024/02/18 00:44:03;;;;;;;;;1.00;1.00;;;;;3.01;81.22;102074.96;114354;239;161636;-55
2024/02/18 00:46:37;;;;;;;;;2.00;1.00;;;;;3.01;81.22;102079.39;114577;242;39688;-54
2024/02/18 00:49:11;;;;;;;;;2.00;1.75;;;;;3.04;81.18;102083.30;114410;239;160872;-54
2024/02/18 00:51:45;;;;;;;;;1.00;1.00;;;;;3.08;81.15;102088.89;114567;242;40990;-50
2024/02/18 00:54:19;;;;;;;;;2.00;2.00;;;;;3.10;80.84;102094.42;114448;239;160685;-51
2024/02/18 00:56:53;;;;;;;;;0.75;0.25;;;;;3.07;80.83;102093.05;114563;243;39607;-51
2024/02/18 00:59:27;;;;;;;;;1.00;1.00;;;;;3.06;80.91;102093.68;114587;242;40191;-51
2024/02/18 01:02:02;;;;;;;;;2.00;1.25;;;;;3.06;80.65;102101.65;114430;239;161399;-52
2024/02/18 01:04:36;;;;;;;;;1.00;1.00;;;;;3.05;80.63;102093.70;114548;243;40897;-52
2024/02/18 01:07:13;;;;;;;;;1.00;1.00;;;;;3.06;80.47;102097.55;114414;239;160139;-51
2024/02/18 01:09:49;;;;;;;;;1.00;1.00;;;;;3.03;80.50;102102.55;114564;243;39746;-51
2024/02/18 01:12:23;;;;;;;;;0.50;0.50;;;;;2.99;80.29;102101.05;114464;239;160438;-54
2024/02/18 01:14:57;;;;;;;;;1.00;1.00;;;;;2.95;80.39;102102.17;114532;242;40976;-53
2024/02/18 01:17:31;;;;;;;;;1.33;1.00;;;;;2.94;80.38;102101.50;114598;243;39900;-53
2024/02/18 01:20:07;;;;;;;;;1.00;1.00;;;;;2.97;80.47;102107.77;114391;243;160244;-53
2024/02/18 01:22:42;;;;;;;;;1.00;1.00;;;;;2.99;80.44;102115.11;114576;242;39424;-53
2024/02/18 01:25:16;;;;;;;;;2.33;2.00;;;;;2.94;80.31;102115.21;114419;239;160389;-53
2024/02/18 01:27:50;;;;;;;;;2.00;1.50;;;;;2.91;80.31;102110.60;114572;242;41437;-52
2024/02/18 01:30:24;;;;;;;;;2.00;2.00;;;;;2.90;80.45;102110.14;114487;239;160257;-52
2024/02/18 01:32:58;;;;;;;;;1.75;1.00;;;;;2.90;80.43;102112.83;114595;242;39276;-51
2024/02/18 01:35:32;;;;;;;;;2.00;1.00;;;;;2.89;80.15;102108.77;114549;242;39778;-58
2024/02/18 01:38:06;;;;;;;;;1.00;1.00;;;;;2.87;80.12;102111.39;114371;239;160579;-52
2024/02/18 01:40:41;;;;;;;;;0.00;0.00;;;;;2.85;79.92;102114.04;114559;243;40018;-52
2024/02/18 01:43:17;;;;;;;;;1.25;1.00;;;;;2.86;79.99;102112.52;114399;240;160975;-52
2024/02/18 01:45:52;;;;;;;;;0.00;0.00;;;;;2.91;79.90;102115.42;114565;243;41312;-52
2024/02/18 01:48:27;;;;;;;;;0.00;0.00;;;;;2.91;79.90;102113.45;114427;239;161255;-53
2024/02/18 01:51:02;;;;;;;;;1.00;1.00;;;;;2.92;79.81;102115.92;114677;243;39104;-54
2024/02/18 01:53:38;;;;;;;;;0.50;0.50;;;;;2.97;79.97;102120.37;114566;243;41005;-51
2024/02/18 01:56:16;;;;;;;;;2.00;1.00;;;;;3.02;79.94;102124.20;114435;239;160226;-51
2024/02/18 01:58:50;;;;;;;;;1.00;0.00;;;;;3.02;79.91;102129.67;114576;243;39756;-54
2024/02/18 02:01:25;;;;;;;;;2.00;1.00;;;;;3.02;79.96;102125.95;114420;243;160219;-54
2024/02/18 02:04:01;;;;;;;;;1.00;1.00;;;;;3.02;79.88;102127.23;114600;243;39648;-55
2024/02/18 02:06:35;;;;;;;;;0.50;0.50;;;;;2.97;79.75;102129.07;114465;239;160220;-53
2024/02/18 02:09:10;;;;;;;;;1.75;1.00;;;;;2.94;79.74;102131.44;114559;243;39312;-54
2024/02/18 02:11:44;;;;;;;;;1.00;1.00;;;;;2.93;79.53;102134.84;114560;243;39587;-51
2024/02/18 02:14:18;;;;;;;;;1.25;1.00;;;;;2.88;79.38;102140.88;114277;244;40875;-51
2024/02/18 02:16:53;;;;;;;;;1.00;1.00;;;;;2.86;79.15;102137.65;114565;243;39441;-55
2024/02/18 02:19:27;;;;;;;;;1.00;1.00;;;;;2.83;78.96;102136.23;114278;241;160191;-55
2024/02/18 02:22:01;;;;;;;;;1.00;1.00;;;;;2.77;78.87;102136.80;114508;243;40353;-53
2024/02/18 02:24:36;;;;;;;;;0.00;0.00;;;;;2.78;78.75;102133.90;114324;242;161414;-53
2024/02/18 02:27:13;;;;;;;;;0.00;0.00;;;;;2.76;78.51;102130.97;114289;244;40459;-51
2024/02/18 02:29:48;;;;;;;;;0.00;0.00;;;;;2.74;78.56;102133.59;114423;244;40786;-51
2024/02/18 02:32:22;;;;;;;;;1.00;1.00;;;;;2.73;78.45;102135.43;114288;244;40036;-52
2024/02/18 02:34:58;;;;;;;;;0.00;0.00;;;;;2.71;78.38;102134.14;114547;243;39640;-51
2024/02/18 02:37:33;;;;;;;;;1.00;1.00;;;;;2.70;78.33;102133.34;114406;241;160191;-52
2024/02/18 02:40:09;;;;;;;;;0.00;0.00;;;;;2.69;78.34;102135.73;114551;242;40058;-52
2024/02/18 02:42:43;;;;;;;;;1.00;1.00;;;;;2.69;78.32;102139.46;114414;243;160089;-50
2024/02/18 02:45:17;;;;;;;;;1.00;0.00;;;;;2.68;78.42;102143.26;114577;242;39597;-50
2024/02/18 02:47:52;;;;;;;;;0.00;0.00;;;;;2.65;78.42;102143.79;114555;242;39455;-53
2024/02/18 02:50:26;;;;;;;;;0.00;0.00;;;;;2.63;78.40;102151.94;114284;243;39664;-53
2024/02/18 02:52:59;;;;;;;;;0.50;0.50;;;;;2.65;78.43;102148.79;114570;243;39959;-50
2024/02/18 02:55:33;;;;;;;;;1.00;0.00;;;;;2.65;78.37;102149.14;114414;242;160856;-50
2024/02/18 02:58:07;;;;;;;;;0.00;0.00;;;;;2.62;78.25;102144.88;114576;243;40821;-50
2024/02/18 03:00:41;;;;;;;;;1.00;1.00;;;;;2.66;78.35;102146.41;114448;242;161810;-50
2024/02/18 03:03:16;;;;;;;;;0.00;0.00;;;;;2.72;78.42;102146.56;114580;243;39895;-51
2024/02/18 03:05:50;;;;;;;;;1.00;1.00;;;;;2.74;78.52;102146.80;114575;242;41740;-51
2024/02/18 03:08:24;;;;;;;;;1.00;1.00;;;;;2.73;78.40;102151.27;114290;243;41189;-51
2024/02/18 03:10:58;;;;;;;;;0.00;0.00;;;;;2.77;78.40;102156.36;114567;243;39711;-51
2024/02/18 03:13:33;;;;;;;;;0.67;0.67;;;;;2.78;78.34;102158.80;114392;241;160241;-50
2024/02/18 03:16:07;;;;;;;;;1.00;1.00;;;;;2.79;78.39;102162.47;114544;243;39466;-50
2024/02/18 03:18:42;;;;;;;;;2.00;1.25;;;;;2.81;78.38;102161.27;114412;241;160119;-51
2024/02/18 03:21:16;;;;;;;;;1.00;1.00;;;;;2.76;78.33;102156.64;114543;243;40592;-52
2024/02/18 03:23:53;;;;;;;;;0.00;0.00;;;;;2.70;78.35;102162.14;114538;243;39672;-50
2024/02/18 03:26:27;;;;;;;;;1.00;1.00;;;;;2.67;78.32;102162.16;114310;243;40791;-52
2024/02/18 03:29:00;;;;;;;;;1.00;1.00;;;;;2.64;78.24;102163.77;114588;243;39813;-53
2024/02/18 03:31:34;;;;;;;;;1.00;0.00;;;;;2.63;78.13;102166.70;114416;241;160144;-51
2024/02/18 03:34:08;;;;;;;;;1.00;1.00;;;;;2.60;78.15;102175.23;114544;242;40927;-52
2024/02/18 03:36:42;;;;;;;;;0.00;0.00;;;;;2.60;78.04;102175.27;114369;241;160024;-51
2024/02/18 03:39:16;;;;;;;;;1.00;1.00;;;;;2.61;78.11;102173.05;114439;243;40360;-50
2024/02/18 03:41:50;;;;;;;;;1.00;1.00;;;;;2.62;78.06;102174.54;114584;243;39232;-54
2024/02/18 03:44:24;;;;;;;;;1.00;1.00;;;;;2.60;77.88;102171.50;114262;243;39333;-54
2024/02/18 03:46:58;;;;;;;;;0.00;0.00;;;;;2.56;77.81;102174.61;114255;243;40595;-51
2024/02/18 03:49:32;;;;;;;;;0.00;0.00;;;;;2.56;77.91;102186.17;114318;242;160125;-51
2024/02/18 03:52:07;;;;;;;;;0.00;0.00;;;;;2.52;77.58;102185.52;114576;243;39863;-52
2024/02/18 03:54:40;;;;;;;;;0.00;0.00;;;;;2.47;77.56;102184.80;114349;241;160934;-51
2024/02/18 03:57:14;;;;;;;;;0.00;0.00;;;;;2.45;77.42;102189.31;114428;243;39889;-50
2024/02/18 03:59:48;;;;;;;;;0.00;0.00;;;;;2.46;77.38;102191.79;114550;243;39044;-50
2024/02/18 04:02:22;;;;;;;;;1.00;1.00;;;;;2.44;77.20;102189.56;114250;241;159914;-50
2024/02/18 04:04:56;;;;;;;;;0.00;0.00;;;;;2.45;77.22;102188.09;114578;243;40567;-50
2024/02/18 04:07:30;;;;;;;;;1.00;0.25;;;;;2.43;77.13;102188.90;114293;241;160133;-54
2024/02/18 04:10:05;;;;;;;;;0.00;0.00;;;;;2.43;77.12;102185.71;114517;243;40472;-54
2024/02/18 04:12:39;;;;;;;;;0.00;0.00;;;;;2.42;77.21;102191.83;113987;242;430523;-51
2024/02/18 04:15:27;;;;;;;;;1.00;0.00;;;;;2.37;77.06;102188.59;114567;243;39950;-51
2024/02/18 04:18:01;;;;;;;;;0.00;0.00;;;;;2.35;76.97;102194.23;114404;241;160262;-53
2024/02/18 04:20:35;;;;;;;;;0.00;0.00;;;;;2.31;77.05;102199.40;114383;243;40214;-52
2024/02/18 04:23:09;;;;;;;;;0.00;0.00;;;;;2.31;77.10;102202.58;114566;243;40031;-51
2024/02/18 04:25:43;;;;;;;;;0.00;0.00;;;;;2.29;77.05;102208.44;114407;241;160139;-51
2024/02/18 04:28:16;;;;;;;;;0.00;0.00;;;;;2.23;77.07;102209.90;114570;243;39376;-52
2024/02/18 04:30:50;;;;;;;;;0.00;0.00;;;;;2.21;77.23;102210.55;114356;243;161121;-52
2024/02/18 04:33:24;;;;;;;;;0.00;0.00;;;;;2.19;77.09;102203.69;114474;243;39689;-52
2024/02/18 04:35:58;;;;;;;;;0.00;0.00;;;;;2.16;77.22;102200.67;114448;242;161203;-52
2024/02/18 04:38:32;;;;;;;;;0.00;0.00;;;;;2.15;77.25;102202.56;114265;244;40629;-53
2024/02/18 04:41:06;;;;;;;;;0.00;0.00;;;;;2.07;77.21;102204.98;114250;244;39000;-53
2024/02/18 04:43:39;;;;;;;;;0.00;0.00;;;;;2.00;77.14;102210.55;114168;241;160530;-49
2024/02/18 04:46:13;;;;;;;;;0.00;0.00;;;;;1.95;77.13;102210.33;114540;243;39613;-49
2024/02/18 04:48:47;;;;;;;;;0.00;0.00;;;;;1.85;77.24;102211.06;114336;241;160195;-51
2024/02/18 04:51:22;;;;;;;;;0.00;0.00;;;;;1.76;77.13;102209.08;114265;243;40096;-53
2024/02/18 04:53:56;;;;;;;;;0.00;0.00;;;;;1.66;77.04;102211.30;114239;244;39466;-54
2024/02/18 04:56:30;;;;;;;;;0.00;0.00;;;;;1.58;77.25;102210.37;114413;243;39194;-52
2024/02/18 04:59:03;;;;;;;;;0.00;0.00;;;;;1.51;77.13;102210.23;114562;243;39156;-53
2024/02/18 05:01:37;;;;;;;;;0.00;0.00;;;;;1.43;77.36;102213.67;114268;241;160229;-51
2024/02/18 05:04:11;;;;;;;;;1.00;1.00;;;;;1.29;77.34;102210.94;114528;243;40281;-51
2024/02/18 05:06:51;;;;;;;;;1.00;0.00;;;;;1.15;77.50;102207.42;114360;241;160083;-54
2024/02/18 05:09:24;;;;;;;;;0.00;0.00;;;;;1.03;77.41;102210.46;114454;243;39299;-54
2024/02/18 05:11:58;;;;;;;;;0.00;0.00;;;;;0.89;77.58;102208.73;114539;243;41323;-53
2024/02/18 05:14:32;;;;;;;;;0.00;0.00;;;;;0.81;77.68;102214.36;114352;243;40872;-53
2024/02/18 05:17:07;;;;;;;;;0.25;0.25;;;;;0.74;77.92;102221.09;114567;243;41214;-54
2024/02/18 05:19:41;;;;;;;;;0.00;0.00;;;;;0.70;78.20;102218.30;114279;241;161840;-54
2024/02/18 05:22:15;;;;;;;;;0.00;0.00;;;;;0.66;78.30;102221.52;114301;243;39871;-53
2024/02/18 05:24:49;;;;;;;;;0.00;0.00;;;;;0.66;78.52;102223.84;114373;241;160803;-53
2024/02/18 05:27:22;;;;;;;;;0.00;0.00;;;;;0.66;78.81;102221.02;114306;243;40124;-53
2024/02/18 05:29:56;;;;;;;;;0.00;0.00;;;;;0.71;78.99;102224.29;114237;244;41277;-52
2024/02/18 05:32:30;;;;;;;;;0.00;0.00;;;;;0.85;79.35;102226.19;114368;243;40709;-51
2024/02/18 05:35:04;;;;;;;;;0.00;0.00;;;;;0.98;79.42;102225.60;114567;243;39940;-52
2024/02/18 05:37:38;;;;;;;;;0.00;0.00;;;;;1.07;79.43;102232.73;114252;241;160798;-53
2024/02/18 05:40:14;;;;;;;;;1.00;0.00;;;;;1.16;79.26;102231.17;114520;243;39757;-54
2024/02/18 05:42:47;;;;;;;;;1.00;0.75;;;;;1.26;79.28;102239.19;114364;241;160253;-53
2024/02/18 05:45:23;;;;;;;;;1.00;1.00;;;;;1.25;79.17;102242.24;114415;243;40031;-53
2024/02/18 05:47:57;;;;;;;;;0.00;0.00;;;;;1.23;78.97;102244.85;114272;243;40158;-51
2024/02/18 05:50:31;;;;;;;;;0.00;0.00;;;;;1.20;78.73;102241.26;114295;243;40362;-50
2024/02/18 05:53:06;;;;;;;;;1.00;1.00;;;;;1.19;78.51;102243.65;114594;243;39752;-53
2024/02/18 05:55:40;;;;;;;;;0.00;0.00;;;;;1.12;78.28;102249.89;114277;242;160552;-53
2024/02/18 05:58:14;;;;;;;;;0.67;0.00;;;;;0.99;78.21;102257.87;114554;243;40553;-55
2024/02/18 06:00:47;;;;;;;;;0.25;0.25;;;;;0.82;78.36;102260.39;114122;242;160338;-55
2024/02/18 06:03:21;;;;;;;;;0.00;0.00;;;;;0.66;78.39;102267.23;114302;244;40964;-52
2024/02/18 06:05:55;;;;;;;;;0.00;0.00;;;;;0.52;78.44;102268.52;114403;244;39864;-52
2024/02/18 06:08:29;;;;;;;;;0.00;0.00;;;;;0.41;78.64;102267.86;114271;243;39955;-53
2024/02/18 06:11:06;;;;;;;;;0.00;0.00;;;;;0.28;78.80;102275.08;114584;243;39295;-54
2024/02/18 06:13:42;;;;;;;;;0.00;0.00;;;;;0.17;78.97;102281.83;114253;243;160747;-54
2024/02/18 06:16:17;;;;;;;;;1.00;0.00;;;;;0.08;79.21;102282.11;114584;243;40833;-53
2024/02/18 06:18:51;;;;;;;;;0.00;0.00;;;;;0.01;79.48;102281.41;114351;242;160852;-53
2024/02/18 06:21:25;;;;;;;;;0.00;0.00;;;;;-0.07;79.78;102280.56;114441;243;39856;-51
2024/02/18 06:23:59;;;;;;;;;0.00;0.00;;;;;-0.10;79.92;102282.16;114264;243;40579;-51
2024/02/18 06:26:33;;;;;;;;;0.00;0.00;;;;;-0.13;80.17;102280.50;114332;243;39191;-53
2024/02/18 06:29:07;;;;;;;;;0.00;0.00;;;;;-0.09;80.20;102285.98;114561;243;39720;-54
2024/02/18 06:31:41;;;;;;;;;0.00;0.00;;;;;-0.03;80.45;102284.13;114502;242;161324;-54
2024/02/18 06:34:15;;;;;;;;;0.00;0.00;;;;;-0.04;80.44;102288.41;114567;242;39639;-55
2024/02/18 06:36:49;;;;;;;;;0.00;0.00;;;;;-0.06;80.87;102289.74;114450;241;160608;-52
2024/02/18 06:39:23;;;;;;;;;0.00;0.00;;;;;-0.08;81.09;102290.52;114525;243;41355;-52
2024/02/18 06:41:57;;;;;;;;;0.00;0.00;;;;;-0.07;81.30;102290.66;114502;242;39128;-52
2024/02/18 06:44:31;;;;;;;;;0.00;0.00;;;;;-0.06;81.40;102294.71;114297;243;39335;-52
2024/02/18 06:47:05;;;;;;;;;0.00;0.00;;;;;-0.02;81.51;102297.84;114599;242;39793;-52
2024/02/18 06:49:39;;;;;;;;;0.00;0.00;;;;;0.04;81.46;102301.66;114444;241;160971;-52
2024/02/18 06:52:14;;;;;;;;;0.00;0.00;;;;;0.14;81.85;102304.32;114586;243;41002;-53
2024/02/18 06:54:47;;;;;;;;;0.75;0.75;;;;;0.42;82.06;102299.17;114433;241;161297;-53
2024/02/18 06:57:22;;;;;;;;;0.00;0.00;;;;;0.74;81.99;102296.83;114587;243;41173;-55
2024/02/18 06:59:56;;;;;;;;;1.00;1.00;;;;;1.14;82.28;102296.96;114590;243;39789;-55
2024/02/18 07:02:30;;;;;;;;;1.00;0.00;;;;;1.53;82.19;102296.16;114459;241;160262;-51
2024/02/18 07:05:05;;;;;;;;;0.50;0.00;;;;;2.13;82.08;102297.39;114574;243;39996;-51
2024/02/18 07:07:38;;;;;;;;;1.00;1.00;;;;;2.77;82.06;102304.05;114448;241;160209;-51
2024/02/18 07:10:13;;;;;;;;;1.00;1.00;;;;;2.92;81.79;102303.83;114558;243;41072;-51
2024/02/18 07:12:46;;;;;;;;;0.00;0.00;;;;;3.01;81.97;102304.48;114424;241;160304;-55
2024/02/18 07:15:21;;;;;;;;;2.00;2.00;;;;;3.30;82.27;102305.89;114580;243;40450;-55
2024/02/18 07:17:54;;;;;;;;;2.00;1.33;;;;;3.83;81.94;102304.95;114567;243;39578;-54
2024/02/18 07:20:28;;;;;;;;;1.00;1.00;;;;;4.60;81.29;102301.70;114408;241;160624;-54
2024/02/18 07:23:02;;;;;;;;;1.00;1.00;;;;;5.52;80.78;102294.48;114561;243;40043;-54
2024/02/18 07:25:36;;;;;;;;;0.00;0.00;;;;;6.68;79.93;102292.15;114370;243;160140;-54
2024/02/18 07:28:10;;;;;;;;;2.00;1.00;;;;;7.20;78.77;102288.64;114561;242;40589;-55
2024/02/18 07:30:44;;;;;;;;;0.00;0.00;;;;;7.31;77.86;102291.71;114410;241;160315;-55
2024/02/18 07:33:18;;;;;;;;;1.00;1.00;;;;;7.50;77.18;102295.14;114541;242;39795;-56
2024/02/18 07:35:52;;;;;;;;;1.00;1.00;;;;;7.54;76.11;102290.48;114561;243;39501;-56
2024/02/18 07:38:27;;;;;;;;;1.00;1.00;;;;;7.39;75.58;102287.23;114431;241;160202;-54
2024/02/18 07:41:01;;;;;;;;;1.00;1.00;;;;;7.82;75.63;102286.81;114578;242;39255;-51
2024/02/18 07:43:35;;;;;;;;;2.00;1.00;;;;;8.22;75.35;102285.42;114422;242;160390;-53
2024/02/18 07:46:11;;;;;;;;;1.00;1.00;;;;;9.00;75.12;102279.91;114582;243;39129;-53
2024/02/18 07:48:45;;;;;;;;;1.00;1.00;;;;;10.13;74.57;102275.66;114433;241;160649;-53
2024/02/18 07:51:19;;;;;;;;;2.00;2.00;;;;;11.72;73.80;102278.04;114532;243;39364;-53
2024/02/18 07:53:52;;;;;;;;;2.00;1.25;;;;;12.67;71.74;102275.67;114574;242;39618;-53
2024/02/18 07:56:26;;;;;;;;;2.00;1.00;;;;;13.73;70.14;102273.66;114436;241;160777;-53
2024/02/18 07:59:00;;;;;;;;;1.00;1.00;;;;;14.54;69.42;102274.29;114544;243;40632;-53
2024/02/18 08:01:34;;;;;;;;;2.00;2.00;;;;;15.56;67.99;102279.34;114403;241;160719;-55
2024/02/18 08:04:08;;;;;;;;;2.00;2.00;;;;;16.30;66.50;102282.90;114550;243;40926;-55
2024/02/18 08:06:42;;;;;;;;;2.00;2.00;;;;;16.66;64.66;102280.95;114411;241;161063;-55
2024/02/18 08:09:16;;;;;;;;;3.00;2.75;;;;;17.00;63.29;102275.31;114513;243;40164;-54
2024/02/18 08:11:50;;;;;;;;;2.00;2.00;;;;;16.74;61.29;102279.76;114564;242;40948;-56
2024/02/18 08:14:23;;;;;;;;;3.00;3.00;;;;;16.43;59.55;102275.76;114399;241;160563;-56
2024/02/18 08:16:57;;;;;;;;;1.00;1.00;;;;;16.48;58.04;102278.92;114551;242;40964;-53
2024/02/18 08:19:31;;;;;;;;;1.00;1.00;;;;;15.74;56.66;102285.67;114420;241;160640;-53
2024/02/18 08:22:05;;;;;;;;;2.00;1.33;;;;;15.25;56.08;102279.38;114573;243;40039;-53
2024/02/18 08:24:42;;;;;;;;;2.00;2.00;;;;;14.60;55.72;102281.86;114439;241;160869;-52
2024/02/18 08:27:15;;;;;;;;;3.00;2.00;;;;;15.00;56.13;102277.65;114536;242;39608;-55
2024/02/18 08:29:50;;;;;;;;;2.00;2.00;;;;;15.67;55.26;102273.08;114602;242;40283;-54
2024/02/18 08:32:24;;;;;;;;;2.00;2.00;;;;;14.68;54.49;102273.11;114392;241;160525;-55
2024/02/18 08:34:57;;;;;;;;;1.00;1.00;;;;;15.25;54.88;102273.89;114566;242;40116;-55
2024/02/18 08:37:31;;;;;;;;;2.75;2.00;;;;;15.85;54.37;102274.27;114438;241;160611;-52
2024/02/18 08:40:07;;;;;;;;;1.00;0.00;;;;;16.06;52.87;102279.27;114553;243;40505;-52
2024/02/18 08:42:41;;;;;;;;;1.00;1.00;;;;;16.04;50.27;102278.75;114107;242;161225;-51
2024/02/18 08:45:15;;;;;;;;;2.00;2.00;;;;;15.31;49.60;102285.16;114230;244;39928;-53
2024/02/18 08:47:49;;;;;;;;;1.00;1.00;;;;;13.39;49.37;102284.55;114259;244;40052;-51
2024/02/18 08:50:23;;;;;;;;;3.00;2.00;;;;;12.24;50.17;102292.33;114088;242;160350;-52
2024/02/18 08:52:57;;;;;;;;;1.00;1.00;;;;;12.19;51.26;102292.14;114254;244;41131;-55
2024/02/18 08:55:31;;;;;;;;;1.00;1.00;;;;;12.55;51.94;102289.41;114293;241;160791;-55
2024/02/18 08:58:06;;;;;;;;;1.00;1.00;;;;;13.06;51.41;102285.65;114564;243;39596;-50
2024/02/18 09:00:39;;;;;;;;;3.00;3.00;;;;;13.33;50.92;102276.36;114372;241;160873;-51
2024/02/18 09:03:13;;;;;;;;;1.00;1.00;;;;;13.82;51.09;102278.15;114431;243;40776;-50
2024/02/18 09:05:47;;;;;;;;;1.00;1.00;;;;;13.56;50.03;102280.05;114584;243;39730;-49
2024/02/18 09:08:22;;;;;;;;;2.00;2.00;;;;;13.15;49.45;102277.02;114233;241;160779;-51
2024/02/18 09:10:56;;;;;;;;;2.00;2.00;;;;;13.32;49.80;102274.49;114552;243;40134;-50
2024/02/18 09:13:30;;;;;;;;;2.00;2.00;;;;;13.32;49.68;102273.01;114272;240;160810;-49
2024/02/18 09:16:04;;;;;;;;;1.00;1.00;;;;;13.48;50.19;102278.15;114520;243;40139;-50
2024/02/18 09:18:38;;;;;;;;;1.00;1.00;;;;;13.42;49.46;102282.05;114450;241;161662;-50
2024/02/18 09:21:13;;;;;;;;;2.00;2.00;;;;;12.34;49.53;102290.84;114519;243;40095;-50
2024/02/18 09:23:46;;;;;;;;;1.00;1.00;;;;;12.81;50.28;102289.73;114579;243;39432;-54
2024/02/18 09:26:20;;;;;;;;;1.00;1.00;;;;;13.65;50.73;102285.95;114118;242;160594;-54
2024/02/18 09:28:54;;;;;;;;;1.00;1.00;;;;;13.68;50.00;102280.54;114535;243;39324;-54
2024/02/18 09:31:28;;;;;;;;;1.00;1.00;;;;;13.65;49.78;102282.46;114285;240;160658;-51
2024/02/18 09:34:02;;;;;;;;;1.00;1.00;;;;;12.85;48.94;102286.28;114552;242;41263;-50
2024/02/18 09:36:35;;;;;;;;;1.00;1.00;;;;;11.82;48.39;102291.72;114423;241;161104;-50
2024/02/18 09:39:11;;;;;;;;;2.00;1.50;;;;;11.76;49.27;102290.66;114546;243;39531;-50
2024/02/18 09:41:48;;;;;;;;;2.00;1.00;;;;;12.61;49.64;102283.08;114566;243;40127;-50
2024/02/18 09:44:24;;;;;;;;;2.00;1.00;;;;;13.30;49.39;102275.00;114405;241;160676;-50
2024/02/18 09:46:59;;;;;;;;;1.00;1.00;;;;;13.06;47.33;102266.14;114304;243;40737;-51
2024/02/18 09:49:34;;;;;;;;;1.00;1.00;;;;;12.77;48.25;102266.81;114242;241;160891;-51
2024/02/18 09:52:12;;;;;;;;;3.75;3.25;;;;;13.00;48.03;102267.86;114532;243;39597;-55
2024/02/18 09:54:47;;;;;;;;;2.00;1.25;;;;;13.23;48.28;102260.59;114358;241;161018;-54
2024/02/18 09:57:20;;;;;;;;;2.25;2.00;;;;;14.25;48.31;102257.55;114380;243;39414;-56
2024/02/18 09:59:54;;;;;;;;;1.00;1.00;;;;;15.30;48.00;102253.21;114607;243;39522;-55
2024/02/18 10:02:29;;;;;;;;;1.00;1.00;;;;;16.02;47.18;102253.00;114130;242;160065;-54
2024/02/18 10:05:04;;;;;;;;;2.00;2.00;;;;;15.90;46.66;102251.23;114585;243;40670;-53
2024/02/18 10:07:37;;;;;;;;;2.00;2.00;;;;;15.93;46.31;102256.00;114417;241;160825;-52
2024/02/18 10:10:12;;;;;;;;;2.00;2.00;;;;;16.01;45.53;102260.38;114612;242;39960;-51
2024/02/18 10:12:46;;;;;;;;;1.50;1.25;;;;;16.22;45.22;102251.56;114425;242;161047;-54
2024/02/18 10:15:20;;;;;;;;;1.00;1.00;;;;;15.64;45.05;102250.01;114557;243;40495;-54
2024/02/18 10:17:54;;;;;;;;;2.00;2.00;;;;;14.74;44.62;102244.30;114592;243;40066;-53
2024/02/18 10:20:31;;;;;;;;;1.67;1.00;;;;;13.93;44.79;102246.32;114406;241;160481;-52
2024/02/18 10:23:05;;;;;;;;;1.00;1.00;;;;;13.33;44.59;102249.75;114593;242;39687;-53
2024/02/18 10:25:40;;;;;;;;;3.00;2.33;;;;;12.43;44.96;102250.80;114598;241;160819;-53
2024/02/18 10:28:16;;;;;;;;;1.00;1.00;;;;;11.79;44.88;102250.79;114577;243;39560;-50
2024/02/18 10:30:50;;;;;;;;;0.75;0.75;;;;;11.06;45.62;102241.98;114441;241;160649;-50
2024/02/18 10:33:24;;;;;;;;;1.00;1.00;;;;;10.81;46.20;102238.61;114551;243;39381;-55
2024/02/18 10:36:09;;;;;;;;;1.00;1.00;;;;;10.33;46.28;102243.05;114553;243;41391;-54
2024/02/18 10:38:47;;;;;;;;;1.00;1.00;;;;;9.80;46.92;102241.29;114286;243;39579;-54
2024/02/18 10:41:28;;;;;;;;;0.00;0.00;;;;;9.49;46.57;102244.30;114570;243;40043;-54
2024/02/18 10:44:06;;;;;;;;;2.00;2.00;;;;;9.27;46.70;102236.73;114170;242;160578;-55
2024/02/18 10:46:42;;;;;;;;;1.00;0.00;;;;;8.87;47.15;102233.86;114246;244;39963;-51
2024/02/18 10:49:26;;;;;;;;;1.67;1.00;;;;;8.70;47.38;102233.95;114301;242;161775;-51
2024/02/18 10:52:15;;;;;;;;;1.00;1.00;;;;;9.00;47.85;102226.56;114630;243;39946;-52
2024/02/18 10:55:01;;;;;;;;;1.00;1.00;;;;;9.26;47.60;102225.33;114334;241;161193;-52
2024/02/18 10:57:45;;;;;;;;;1.00;1.00;;;;;9.24;48.12;102220.29;114371;243;39877;-52
2024/02/18 11:00:20;;;;;;;;;0.75;0.00;;;;;9.00;48.21;102215.45;114095;241;161944;-52
2024/02/18 11:03:01;;;;;;;;;2.00;2.00;;;;;8.87;48.52;102207.07;114242;244;40715;-55
2024/02/18 11:05:36;;;;;;;;;2.00;1.25;;;;;9.08;48.10;102201.97;114218;244;39611;-55
2024/02/18 11:08:12;;;;;;;;;1.00;1.00;;;;;9.24;47.98;102197.52;114334;242;160722;-55
2024/02/18 11:10:47;;;;;;;;;1.00;1.00;;;;;9.23;47.76;102193.29;114565;243;39816;-55
2024/02/18 11:13:22;;;;;;;;;1.00;1.00;;;;;8.98;48.12;102193.70;114413;242;160482;-55
2024/02/18 11:15:56;;;;;;;;;1.00;1.00;;;;;8.77;48.19;102192.84;114584;243;39948;-54
2024/02/18 11:18:31;;;;;;;;;1.00;1.00;;;;;8.55;48.13;102184.58;114460;241;160700;-51
2024/02/18 11:21:06;;;;;;;;;1.00;1.00;;;;;8.58;48.34;102178.95;114759;243;41027;-51
2024/02/18 11:23:52;;;;;;;;;1.00;1.00;;;;;8.69;47.92;102175.95;114559;243;40943;-53
2024/02/18 11:26:27;;;;;;;;;1.00;1.00;;;;;8.65;48.43;102174.67;114796;241;160929;-51
2024/02/18 11:29:05;;;;;;;;;1.00;1.00;;;;;8.39;48.76;102171.76;114260;243;41052;-51
2024/02/18 11:31:40;;;;;;;;;1.00;1.00;;;;;8.34;49.22;102169.58;114616;241;160594;-51
2024/02/18 11:34:14;;;;;;;;;1.25;1.00;;;;;8.42;49.24;102167.63;114266;242;40177;-51
2024/02/18 11:36:48;;;;;;;;;2.00;1.00;;;;;8.53;49.11;102163.20;114466;241;160844;-52
2024/02/18 11:39:29;;;;;;;;;2.00;1.00;;;;;8.54;49.09;102160.77;114559;242;41031;-52
2024/02/18 11:42:13;;;;;;;;;2.00;1.00;;;;;8.48;49.07;102155.38;114568;242;40837;-51
2024/02/18 11:44:48;;;;;;;;;1.25;1.00;;;;;8.43;49.09;102148.45;114607;242;39400;-50
2024/02/18 11:47:22;;;;;;;;;2.00;1.50;;;;;8.36;49.41;102144.77;114615;242;40323;-51
2024/02/18 11:49:57;;;;;;;;;1.00;1.00;;;;;8.40;49.59;102144.77;114463;241;160309;-50
2024/02/18 11:52:31;;;;;;;;;1.00;1.00;;;;;8.34;49.60;102138.31;114480;243;40246;-52
2024/02/18 11:55:17;;;;;;;;;1.00;1.00;;;;;8.13;49.09;102133.79;114126;242;159925;-52
2024/02/18 11:57:52;;;;;;;;;4.25;3.00;;;;;8.00;49.14;102131.90;114572;242;40378;-51
2024/02/18 12:00:26;;;;;;;;;2.00;2.00;;;;;7.90;49.02;102131.35;114465;241;160663;-51
2024/02/18 12:03:01;;;;;;;;;2.00;2.00;;;;;7.78;49.08;102129.52;114560;242;40600;-54
2024/02/18 12:05:35;;;;;;;;;1.00;1.00;;;;;7.67;49.35;102128.79;114587;243;39288;-55